createdAt,value
2022-11-05T00:04:56.765Z,10.20
2022-11-05T00:10:06.460Z,12.70
2022-11-05T00:15:13.006Z,8.30
2022-11-05T00:20:15.763Z,10.30
2022-11-05T00:25:20.103Z,10.50
2022-11-05T00:30:25.866Z,11.00
2022-11-05T00:35:28.590Z,7.50
2022-11-05T00:40:33.683Z,12.30
2022-11-05T00:45:37.718Z,11.00
2022-11-05T00:50:40.680Z,13.50
2022-11-05T00:55:45.019Z,11.40
2022-11-05T01:00:50.708Z,13.00
2022-11-05T01:05:56.285Z,11.30
2022-11-05T01:10:59.735Z,13.50
2022-11-05T01:16:07.347Z,13.80
2022-11-05T01:21:15.666Z,12.00
2022-11-05T01:26:18.747Z,13.20
2022-11-05T01:31:21.663Z,8.80
2022-11-05T01:36:25.541Z,11.40
2022-11-05T01:41:29.245Z,12.90
2022-11-05T01:46:38.516Z,11.70
2022-11-05T01:51:42.256Z,10.40
2022-11-05T01:56:53.707Z,13.10
2022-11-05T02:01:56.701Z,13.40
2022-11-05T02:07:00.097Z,11.70
2022-11-05T02:12:03.236Z,10.60
2022-11-05T02:17:11.279Z,17.00
2022-11-05T02:22:41.249Z,13.40
2022-11-05T02:28:01.437Z,13.60
2022-11-05T02:33:12.509Z,11.30
2022-11-05T02:38:21.084Z,15.50
2022-11-05T02:43:29.258Z,9.60
2022-11-05T02:48:42.274Z,12.00
2022-11-05T02:53:51.034Z,13.10
2022-11-05T02:58:53.547Z,13.00
2022-11-05T03:04:00.667Z,12.20
2022-11-05T03:09:28.258Z,15.10
2022-11-05T03:14:40.243Z,14.90
2022-11-05T03:19:45.661Z,13.70
2022-11-05T03:24:54.325Z,13.10
2022-11-05T03:30:03.053Z,12.60
2022-11-05T03:35:14.639Z,11.50
2022-11-05T03:40:18.608Z,15.40
2022-11-05T03:45:31.970Z,11.60
2022-11-05T03:50:44.858Z,10.70
2022-11-05T03:55:56.563Z,13.10
2022-11-05T04:01:02.091Z,11.70
2022-11-05T04:06:09.659Z,14.10
2022-11-05T04:11:15.238Z,13.10
2022-11-05T04:16:20.663Z,17.80
2022-11-05T04:21:26.161Z,14.80
2022-11-05T04:26:28.644Z,15.80
2022-11-05T04:31:31.109Z,11.60
2022-11-05T04:36:33.698Z,16.40
2022-11-05T04:41:36.183Z,19.40
2022-11-05T04:46:38.684Z,14.90
2022-11-05T04:51:41.254Z,14.00
2022-11-05T04:56:43.750Z,11.90
2022-11-05T05:01:46.411Z,14.70
2022-11-05T05:06:48.941Z,15.40
2022-11-05T05:11:51.501Z,14.50
2022-11-05T05:16:53.988Z,14.30
2022-11-05T05:21:56.454Z,14.90
2022-11-05T05:26:59.210Z,21.30
2022-11-05T05:32:01.677Z,13.30
2022-11-05T05:37:04.318Z,21.20
2022-11-05T05:42:06.808Z,20.20
2022-11-05T05:47:09.386Z,18.00
2022-11-05T05:52:12.016Z,20.70
2022-11-05T05:57:14.519Z,18.50
2022-11-05T06:02:17.237Z,20.50
2022-11-05T06:07:19.788Z,19.90
2022-11-05T06:12:22.477Z,18.70
2022-11-05T06:17:25.049Z,22.90
2022-11-05T06:22:27.573Z,23.30
2022-11-05T06:27:30.161Z,21.80
2022-11-05T06:32:32.690Z,22.60
2022-11-05T06:37:35.182Z,21.10
2022-11-05T06:42:37.632Z,19.20
2022-11-05T06:47:40.169Z,21.50
2022-11-05T06:52:42.645Z,18.60
2022-11-05T06:57:45.271Z,18.40
2022-11-05T07:02:50.763Z,23.80
2022-11-05T07:07:53.247Z,18.90
2022-11-05T07:12:55.979Z,17.90
2022-11-05T07:18:00.091Z,19.40
2022-11-05T07:23:06.626Z,26.10
2022-11-05T07:29:19.111Z,22.50
2022-11-05T07:34:21.566Z,22.90
2022-11-05T07:39:24.143Z,30.10
2022-11-05T07:44:26.734Z,25.10
2022-11-05T07:49:29.248Z,24.00
2022-11-05T07:54:33.974Z,29.00
2022-11-05T07:59:36.785Z,24.80
2022-11-05T08:04:40.273Z,30.30
2022-11-05T08:09:42.834Z,32.10
2022-11-05T08:14:45.329Z,26.10
2022-11-05T08:19:47.868Z,25.70
2022-11-05T08:24:50.368Z,33.50
2022-11-05T08:29:53.011Z,33.70
2022-11-05T08:34:55.618Z,24.90
2022-11-05T08:40:00.414Z,26.80
2022-11-05T08:45:03.303Z,30.50
2022-11-05T08:50:06.296Z,42.10
2022-11-05T08:55:09.330Z,29.30
2022-11-05T09:00:13.514Z,28.90
2022-11-05T09:05:16.098Z,29.30
2022-11-05T09:10:18.585Z,27.60
2022-11-05T09:15:21.402Z,29.10
2022-11-05T09:20:23.994Z,27.00
2022-11-05T09:25:26.762Z,26.10
2022-11-05T09:30:29.325Z,28.90
2022-11-05T09:35:31.896Z,32.70
2022-11-05T09:40:43.626Z,22.60
2022-11-05T09:45:51.720Z,29.80
2022-11-05T09:50:54.800Z,32.10
2022-11-05T09:56:00.127Z,29.60
2022-11-05T10:01:09.360Z,26.00
2022-11-05T10:06:21.127Z,27.30
2022-11-05T10:11:31.799Z,33.00
2022-11-05T10:16:39.806Z,34.30
2022-11-05T10:22:05.553Z,29.50
2022-11-05T10:27:05.699Z,29.70
2022-11-05T10:32:11.590Z,27.10
2022-11-05T10:42:22.593Z,29.50
2022-11-05T10:47:31.028Z,26.50
2022-11-05T10:52:53.697Z,29.30
2022-11-05T10:58:07.967Z,27.70
2022-11-05T11:03:16.693Z,23.20
2022-11-05T11:08:24.015Z,20.90
2022-11-05T11:13:29.523Z,25.40
2022-11-05T11:18:40.339Z,31.90
2022-11-05T11:23:54.299Z,64.90
2022-11-05T11:29:01.891Z,51.90
2022-11-05T11:34:07.575Z,46.90
2022-11-05T11:39:30.403Z,45.20
2022-11-05T11:44:41.088Z,41.70
2022-11-05T11:49:48.105Z,32.60
2022-11-05T11:54:52.374Z,38.70
2022-11-05T12:00:12.682Z,37.10
2022-11-05T12:05:21.160Z,29.10
2022-11-05T12:10:34.093Z,26.60
2022-11-05T12:15:41.508Z,27.70
2022-11-05T12:20:52.775Z,21.60
2022-11-05T12:26:05.962Z,21.90
2022-11-05T12:31:08.455Z,26.70
2022-11-05T12:36:19.013Z,24.20
2022-11-05T12:41:30.124Z,19.30
2022-11-05T12:46:43.609Z,22.70
2022-11-05T12:51:50.041Z,17.40
2022-11-05T12:56:57.680Z,22.80
2022-11-05T13:02:11.296Z,19.00
2022-11-05T13:07:20.035Z,21.70
2022-11-05T13:12:27.407Z,22.30
2022-11-05T13:17:38.145Z,19.10
2022-11-05T13:22:46.591Z,20.30
2022-11-05T13:27:57.834Z,19.00
2022-11-05T13:33:12.841Z,18.10
2022-11-05T13:38:26.745Z,27.10
2022-11-05T13:43:41.636Z,31.00
2022-11-05T13:48:58.820Z,28.20
2022-11-05T13:54:10.993Z,15.00
2022-11-05T13:59:17.376Z,19.80
2022-11-05T14:04:43.075Z,19.50
2022-11-05T14:09:46.532Z,16.20
2022-11-05T14:14:58.401Z,18.30
2022-11-05T14:20:04.362Z,19.80
2022-11-05T14:25:12.701Z,23.00
2022-11-05T14:30:21.069Z,21.60
2022-11-05T14:35:41.299Z,28.50
2022-11-05T14:40:44.605Z,36.90
2022-11-05T14:45:52.945Z,22.80
2022-11-05T14:50:55.944Z,23.60
2022-11-05T14:56:07.167Z,20.70
2022-11-05T15:01:13.795Z,37.30
2022-11-05T15:06:22.405Z,35.00
2022-11-05T15:11:32.845Z,30.80
2022-11-05T15:16:42.172Z,35.50
2022-11-05T15:21:45.457Z,35.30
2022-11-05T15:33:28.107Z,37.40
2022-11-05T15:38:34.102Z,34.80
2022-11-05T15:43:47.672Z,30.50
2022-11-05T15:48:54.337Z,26.50
2022-11-05T15:59:25.081Z,47.40
2022-11-05T16:04:31.773Z,47.40
2022-11-05T16:09:37.653Z,35.20
2022-11-05T16:14:41.159Z,64.90
2022-11-05T16:19:45.812Z,144.20
2022-11-05T16:24:53.806Z,165.70
2022-11-05T16:29:57.242Z,63.80
2022-11-05T16:35:02.631Z,47.60
2022-11-05T16:40:14.499Z,37.20
2022-11-05T16:45:20.987Z,43.00
2022-11-05T16:50:27.249Z,80.20
2022-11-05T16:55:32.029Z,46.80
2022-11-05T17:00:34.551Z,41.10
2022-11-05T17:05:39.396Z,41.50
2022-11-05T17:10:41.940Z,28.90
2022-11-05T17:15:47.330Z,27.90
2022-11-05T17:20:55.609Z,20.00
2022-11-05T17:26:02.174Z,26.10
2022-11-05T17:31:07.721Z,35.70
2022-11-05T17:36:13.473Z,24.70
2022-11-05T17:41:19.463Z,27.90
2022-11-05T17:51:27.981Z,70.60
2022-11-05T17:56:35.032Z,35.70
2022-11-05T18:01:43.551Z,36.80
2022-11-05T18:06:46.494Z,33.50
2022-11-05T18:11:51.541Z,34.90
2022-11-05T18:16:59.123Z,32.60
2022-11-05T18:22:01.680Z,22.80
2022-11-05T18:27:04.198Z,38.80
2022-11-05T18:32:06.781Z,43.70
2022-11-05T18:37:09.366Z,34.70
2022-11-05T18:42:11.969Z,23.20
2022-11-05T18:47:14.726Z,26.10
2022-11-05T18:52:17.315Z,25.80
2022-11-05T18:57:19.841Z,38.00
2022-11-05T19:02:23.166Z,37.70
2022-11-05T19:07:25.819Z,38.70
2022-11-05T19:12:28.463Z,46.20
2022-11-05T19:17:33.113Z,43.40
2022-11-05T19:22:36.194Z,33.50
2022-11-05T19:27:39.197Z,25.40
2022-11-05T19:32:44.011Z,20.00
2022-11-05T19:37:46.575Z,18.70
2022-11-05T19:42:49.048Z,25.50
2022-11-05T19:47:53.663Z,18.80
2022-11-05T19:52:56.405Z,21.30
2022-11-05T19:57:58.890Z,21.50
2022-11-05T20:03:02.503Z,26.50
2022-11-05T20:08:05.302Z,37.50
2022-11-05T20:13:07.917Z,54.70
2022-11-05T20:18:10.723Z,37.20
2022-11-05T20:23:14.517Z,38.10
2022-11-05T20:28:17.184Z,36.60
2022-11-05T20:33:19.823Z,28.90
2022-11-05T20:38:22.485Z,32.60
2022-11-05T20:43:30.118Z,33.90
2022-11-05T20:48:34.490Z,81.50
2022-11-05T20:53:37.784Z,102.30
2022-11-05T20:58:40.256Z,84.20
2022-11-05T21:03:43.901Z,48.30
2022-11-05T21:08:48.110Z,24.40
2022-11-05T21:13:50.687Z,24.30
2022-11-05T21:18:53.251Z,22.20
2022-11-05T21:23:56.996Z,34.60
2022-11-05T21:28:59.487Z,30.80
2022-11-05T21:34:02.025Z,29.70
2022-11-05T21:39:09.024Z,33.60
2022-11-05T21:44:14.712Z,36.20
2022-11-05T21:49:17.249Z,63.90
2022-11-05T21:54:22.782Z,62.10
2022-11-05T21:59:28.614Z,47.60
2022-11-05T22:09:35.234Z,22.10
2022-11-05T22:14:37.751Z,18.10
2022-11-05T22:19:40.361Z,16.00
2022-11-05T22:24:43.320Z,19.00
2022-11-05T22:29:46.123Z,22.30
2022-11-05T22:34:48.946Z,26.90
2022-11-05T22:39:51.766Z,17.70
2022-11-05T22:44:54.232Z,18.90
2022-11-05T22:49:56.844Z,19.40
2022-11-05T22:56:19.363Z,16.50
2022-11-05T23:01:23.422Z,21.70
2022-11-05T23:06:31.798Z,19.40
2022-11-05T23:11:35.303Z,17.10
2022-11-05T23:16:59.339Z,16.50
2022-11-05T23:22:04.848Z,16.40
2022-11-05T23:27:07.826Z,18.60
2022-11-05T23:32:13.260Z,18.30
2022-11-05T23:37:19.169Z,21.00
2022-11-05T23:42:24.609Z,16.70
2022-11-05T23:47:30.058Z,17.60
2022-11-05T23:52:32.545Z,19.90
2022-11-05T23:57:35.103Z,19.20
